createdAt,value
2019-01-18T00:00:45.249Z,11.1
2019-01-18T00:01:46.853Z,10.8
2019-01-18T00:02:49.001Z,10.8
2019-01-18T00:03:50.543Z,10.8
2019-01-18T00:04:54.644Z,10.8
2019-01-18T00:05:56.189Z,10.8
2019-01-18T00:06:57.940Z,10.9
2019-01-18T00:07:59.587Z,10.8
2019-01-18T00:09:01.401Z,10.7
2019-01-18T00:10:02.970Z,10.8
2019-01-18T00:11:04.541Z,11
2019-01-18T00:12:06.007Z,10.9
2019-01-18T00:13:08.113Z,10.8
2019-01-18T00:14:09.919Z,10.6
2019-01-18T00:15:11.727Z,10.6
2019-01-18T00:16:16.223Z,10.6
2019-01-18T00:17:17.759Z,10.5
2019-01-18T00:18:19.619Z,10.6
2019-01-18T00:19:21.267Z,10.7
2019-01-18T00:20:22.913Z,10.7
2019-01-18T00:21:24.548Z,10.6
2019-01-18T00:22:26.203Z,10.4
2019-01-18T00:23:28.739Z,10.4
2019-01-18T00:24:31.239Z,10.3
2019-01-18T00:25:32.870Z,10.4
2019-01-18T00:26:34.421Z,10.3
2019-01-18T00:27:36.065Z,10.2
2019-01-18T00:28:40.353Z,10.4
2019-01-18T00:29:41.926Z,10.4
2019-01-18T00:30:43.557Z,10.6
2019-01-18T00:31:45.101Z,10.3
2019-01-18T00:32:46.745Z,10.2
2019-01-18T00:33:48.386Z,10.1
2019-01-18T00:34:50.134Z,10.2
2019-01-18T00:35:51.782Z,10.2
2019-01-18T00:36:53.432Z,10.2
2019-01-18T00:37:54.965Z,10.2
2019-01-18T00:38:56.612Z,10.1
2019-01-18T00:39:58.255Z,10
2019-01-18T00:40:59.900Z,10
2019-01-18T00:42:01.600Z,10.1
2019-01-18T00:43:03.169Z,10
2019-01-18T00:44:04.733Z,10
2019-01-18T00:45:06.386Z,10
2019-01-18T00:46:07.931Z,10.1
2019-01-18T00:47:09.574Z,10.1
2019-01-18T00:48:11.214Z,10.1
2019-01-18T00:49:12.862Z,10.1
2019-01-18T00:50:14.810Z,10.1
2019-01-18T00:51:16.461Z,10.2
2019-01-18T00:52:19.248Z,10.2
2019-01-18T00:53:20.784Z,10
2019-01-18T00:54:22.313Z,10
2019-01-18T00:55:23.962Z,9.9
2019-01-18T00:56:25.606Z,9.7
2019-01-18T00:57:27.250Z,9.9
2019-01-18T00:58:28.891Z,9.7
2019-01-18T00:59:36.136Z,9.7
2019-01-18T01:00:38.022Z,9.7
2019-01-18T01:01:39.568Z,9.7
2019-01-18T01:02:41.213Z,9.9
2019-01-18T01:03:42.854Z,9.7
2019-01-18T01:04:44.501Z,9.5
2019-01-18T01:05:46.147Z,9.6
2019-01-18T01:06:47.787Z,9.4
2019-01-18T01:07:50.567Z,9.5
2019-01-18T01:08:52.106Z,9.5
2019-01-18T01:09:53.756Z,9.4
2019-01-18T01:10:55.421Z,9.3
2019-01-18T01:11:57.032Z,9.3
2019-01-18T01:12:58.579Z,9.4
2019-01-18T01:14:00.331Z,9.3
2019-01-18T01:15:01.972Z,9.4
2019-01-18T01:16:03.826Z,9.5
2019-01-18T01:17:05.461Z,9.4
2019-01-18T01:18:07.013Z,9.6
2019-01-18T01:19:08.652Z,9.4
2019-01-18T01:20:10.508Z,9.4
2019-01-18T01:21:12.051Z,9.2
2019-01-18T01:22:14.100Z,9
2019-01-18T01:23:15.747Z,9.1
2019-01-18T01:24:17.394Z,9.1
2019-01-18T01:25:19.032Z,9.2
2019-01-18T01:26:20.690Z,9.2
2019-01-18T01:27:22.331Z,9.2
2019-01-18T01:28:23.870Z,9.2
2019-01-18T01:29:25.514Z,9.4
2019-01-18T01:30:27.153Z,9.2
2019-01-18T01:31:28.818Z,9.2
2019-01-18T01:32:30.454Z,9.3
2019-01-18T01:33:31.898Z,9.1
2019-01-18T01:34:33.546Z,9
2019-01-18T01:35:35.179Z,9
2019-01-18T01:36:36.830Z,9.2
2019-01-18T01:37:38.468Z,9.3
2019-01-18T01:38:40.122Z,9.3
2019-01-18T01:39:43.602Z,9.1
2019-01-18T01:40:45.244Z,9.1
2019-01-18T01:41:46.802Z,9.1
2019-01-18T01:42:48.384Z,9
2019-01-18T01:43:49.988Z,8.9
2019-01-18T01:44:51.520Z,9.1
2019-01-18T01:45:53.087Z,9
2019-01-18T01:46:54.544Z,9.3
2019-01-18T01:47:56.151Z,9.3
2019-01-18T01:48:57.792Z,9.1
2019-01-18T01:49:59.362Z,9.2
2019-01-18T01:51:01.004Z,9
2019-01-18T01:52:02.537Z,9.3
2019-01-18T01:53:04.178Z,9.4
2019-01-18T01:54:05.830Z,9.3
2019-01-18T01:55:07.455Z,9.4
2019-01-18T01:56:09.115Z,9.3
2019-01-18T01:57:10.762Z,9.3
2019-01-18T01:58:12.401Z,9.2
2019-01-18T01:59:14.049Z,9
2019-01-18T02:00:15.688Z,9.1
2019-01-18T02:01:17.229Z,9.1
2019-01-18T02:02:18.875Z,9
2019-01-18T02:03:20.518Z,8.9
2019-01-18T02:04:22.170Z,9.2
2019-01-18T02:05:23.815Z,9
2019-01-18T02:06:25.453Z,9
2019-01-18T02:07:27.103Z,9.1
2019-01-18T02:08:28.741Z,9.1
2019-01-18T02:09:30.385Z,9.2
2019-01-18T02:10:31.929Z,8.9
2019-01-18T02:11:33.483Z,8.8
2019-01-18T02:12:35.128Z,9
2019-01-18T02:13:36.769Z,8.8
2019-01-18T02:14:38.419Z,8.8
2019-01-18T02:15:40.062Z,8.9
2019-01-18T02:16:41.705Z,8.8
2019-01-18T02:17:43.349Z,8.8
2019-01-18T02:18:44.991Z,8.7
2019-01-18T02:19:46.631Z,9
2019-01-18T02:20:48.279Z,8.7
2019-01-18T02:21:50.231Z,9
2019-01-18T02:22:51.773Z,8.9
2019-01-18T02:23:53.423Z,8.6
2019-01-18T02:24:55.063Z,8.6
2019-01-18T02:25:56.713Z,8.9
2019-01-18T02:26:58.365Z,8.9
2019-01-18T02:28:00.203Z,8.7
2019-01-18T02:29:01.747Z,8.6
2019-01-18T02:30:03.298Z,8.7
2019-01-18T02:31:04.830Z,8.6
2019-01-18T02:32:06.373Z,8.5
2019-01-18T02:33:08.035Z,8.4
2019-01-18T02:34:09.670Z,8.7
2019-01-18T02:35:11.310Z,8.5
2019-01-18T02:36:12.961Z,8.3
2019-01-18T02:37:14.607Z,8.3
2019-01-18T02:38:16.249Z,8.4
2019-01-18T02:39:17.889Z,8.7
2019-01-18T02:40:19.533Z,8.5
2019-01-18T02:41:21.194Z,8.6
2019-01-18T02:42:22.835Z,8.5
2019-01-18T02:43:24.475Z,8.5
2019-01-18T02:44:26.116Z,8.7
2019-01-18T02:45:30.521Z,8.6
2019-01-18T02:46:32.179Z,8.5
2019-01-18T02:47:33.821Z,8.6
2019-01-18T02:48:35.461Z,8.6
2019-01-18T02:49:37.106Z,8.6
2019-01-18T02:50:38.658Z,8.6
2019-01-18T02:51:40.497Z,8.4
2019-01-18T02:52:42.141Z,8.5
2019-01-18T02:53:43.791Z,8.5
2019-01-18T02:54:45.456Z,8.4
2019-01-18T02:55:46.999Z,8.4
2019-01-18T02:56:48.509Z,8.4
2019-01-18T02:57:50.059Z,8.3
2019-01-18T02:58:51.607Z,8.4
2019-01-18T02:59:53.251Z,8.5
2019-01-18T03:00:54.887Z,8.6
2019-01-18T03:01:56.537Z,8.7
2019-01-18T03:02:58.187Z,8.9
2019-01-18T03:03:59.738Z,8.8
2019-01-18T03:05:01.389Z,8.9
2019-01-18T03:06:03.122Z,8.9
2019-01-18T03:07:04.772Z,9.1
2019-01-18T03:08:06.418Z,9.2
2019-01-18T03:09:08.063Z,9.1
2019-01-18T03:10:09.701Z,9.1
2019-01-18T03:11:13.366Z,9
2019-01-18T03:12:14.850Z,8.9
2019-01-18T03:13:16.378Z,8.9
2019-01-18T03:14:17.918Z,8.9
2019-01-18T03:15:20.011Z,8.9
2019-01-18T03:16:21.510Z,8.9
2019-01-18T03:17:23.053Z,8.6
2019-01-18T03:18:24.597Z,8.5
2019-01-18T03:19:26.161Z,8.8
2019-01-18T03:20:27.792Z,8.6
2019-01-18T03:21:29.435Z,8.6
2019-01-18T03:22:30.933Z,8.6
2019-01-18T03:23:32.515Z,8.8
2019-01-18T03:24:33.969Z,8.7
2019-01-18T03:25:38.407Z,8.6
2019-01-18T03:26:39.900Z,8.8
2019-01-18T03:27:41.345Z,8.8
2019-01-18T03:28:42.812Z,8.7
2019-01-18T03:29:44.254Z,8.6
2019-01-18T03:30:45.706Z,8.6
2019-01-18T03:31:47.158Z,8.6
2019-01-18T03:32:48.625Z,8.5
2019-01-18T03:33:50.178Z,8.5
2019-01-18T03:34:51.604Z,8.5
2019-01-18T03:35:53.336Z,8.6
2019-01-18T03:36:54.793Z,8.5
2019-01-18T03:37:56.265Z,8.4
2019-01-18T03:38:57.784Z,8.4
2019-01-18T03:39:59.241Z,8.3
2019-01-18T03:41:00.720Z,8.2
2019-01-18T03:42:02.169Z,8.4
2019-01-18T03:43:03.622Z,8.4
2019-01-18T03:44:05.114Z,8.4
2019-01-18T03:45:06.554Z,8.3
2019-01-18T03:46:08.008Z,8.2
2019-01-18T03:47:09.454Z,8.3
2019-01-18T03:48:10.912Z,8.4
2019-01-18T03:49:12.416Z,8.3
2019-01-18T03:50:13.861Z,8.1
2019-01-18T03:51:16.845Z,8.3
2019-01-18T03:52:18.474Z,8.1
2019-01-18T03:53:19.914Z,7.9
2019-01-18T03:54:21.411Z,7.8
2019-01-18T03:55:22.901Z,7.8
2019-01-18T03:56:24.465Z,8
2019-01-18T03:57:25.962Z,7.9
2019-01-18T03:58:27.526Z,8.1
2019-01-18T03:59:29.431Z,7.9
2019-01-18T04:00:31.160Z,7.9
2019-01-18T04:01:32.671Z,7.7
2019-01-18T04:02:34.200Z,7.7
2019-01-18T04:03:35.652Z,7.7
2019-01-18T04:04:37.134Z,7.7
2019-01-18T04:05:39.434Z,7.5
2019-01-18T04:06:41.555Z,7.5
2019-01-18T04:07:43.021Z,7.4
2019-01-18T04:08:44.900Z,7.4
2019-01-18T04:09:46.422Z,7.3
2019-01-18T04:10:48.690Z,7.3
2019-01-18T04:11:50.141Z,7.2
2019-01-18T04:12:51.618Z,7.1
2019-01-18T04:13:53.078Z,7.1
2019-01-18T04:14:54.548Z,7.1
2019-01-18T04:15:56.731Z,7.1
2019-01-18T04:16:59.390Z,6.8
2019-01-18T04:18:00.856Z,6.9
2019-01-18T04:19:02.370Z,7
2019-01-18T04:20:04.386Z,6.9
2019-01-18T04:21:05.884Z,6.8
2019-01-18T04:22:07.520Z,6.6
2019-01-18T04:23:09.172Z,6.6
2019-01-18T04:24:10.705Z,6.6
2019-01-18T04:25:12.344Z,6.6
2019-01-18T04:26:13.786Z,6.7
2019-01-18T04:27:15.470Z,6.6
2019-01-18T04:28:17.176Z,6.6
2019-01-18T04:29:18.855Z,6.7
2019-01-18T04:30:20.477Z,6.8
2019-01-18T04:31:22.253Z,6.6
2019-01-18T04:32:24.173Z,6.5
2019-01-18T04:33:25.849Z,6.4
2019-01-18T04:34:27.746Z,6.5
2019-01-18T04:35:29.313Z,6.5
2019-01-18T04:36:30.957Z,6.5
2019-01-18T04:37:32.602Z,6.6
2019-01-18T04:38:34.244Z,6.4
2019-01-18T04:39:36.097Z,6.5
2019-01-18T04:40:38.866Z,6.4
2019-01-18T04:41:40.533Z,6.3
2019-01-18T04:42:42.153Z,6.2
2019-01-18T04:43:44.000Z,6.2
2019-01-18T04:44:45.550Z,6.2
2019-01-18T04:45:47.204Z,6.1
2019-01-18T04:46:48.835Z,6.1
2019-01-18T04:47:50.802Z,6.2
2019-01-18T04:48:52.434Z,6.3
2019-01-18T04:49:53.981Z,6.3
2019-01-18T04:50:55.633Z,6.1
2019-01-18T04:51:57.271Z,6.2
2019-01-18T04:52:58.913Z,5.9
2019-01-18T04:54:00.562Z,5.9
2019-01-18T04:55:02.198Z,5.9
2019-01-18T04:56:03.850Z,5.9
2019-01-18T04:57:05.502Z,6.1
2019-01-18T04:58:07.037Z,6
2019-01-18T04:59:08.499Z,6
2019-01-18T05:00:10.025Z,5.9
2019-01-18T05:01:11.587Z,5.9
2019-01-18T05:02:15.477Z,5.9
2019-01-18T05:03:16.911Z,5.9
2019-01-18T05:04:18.365Z,6
2019-01-18T05:05:19.853Z,6.1
2019-01-18T05:06:21.375Z,5.9
2019-01-18T05:07:22.826Z,5.9
2019-01-18T05:08:24.271Z,6.2
2019-01-18T05:09:25.721Z,6
2019-01-18T05:10:28.214Z,5.9
2019-01-18T05:11:29.803Z,5.8
2019-01-18T05:12:31.397Z,5.9
2019-01-18T05:13:33.046Z,5.7
2019-01-18T05:14:35.722Z,5.9
2019-01-18T05:15:37.361Z,5.8
2019-01-18T05:16:38.998Z,5.8
2019-01-18T05:17:40.649Z,5.7
2019-01-18T05:18:42.320Z,5.7
2019-01-18T05:19:43.942Z,5.6
2019-01-18T05:20:45.583Z,5.6
2019-01-18T05:21:47.232Z,5.6
2019-01-18T05:22:48.778Z,5.5
2019-01-18T05:23:50.632Z,5.7
2019-01-18T05:24:52.265Z,5.7
2019-01-18T05:25:53.919Z,5.7
2019-01-18T05:26:55.561Z,5.7
2019-01-18T05:27:57.197Z,5.7
2019-01-18T05:28:58.856Z,5.7
2019-01-18T05:30:00.388Z,5.7
2019-01-18T05:31:01.939Z,5.7
2019-01-18T05:32:04.807Z,5.7
2019-01-18T05:33:06.275Z,5.7
2019-01-18T05:34:07.730Z,5.9
2019-01-18T05:35:09.181Z,5.8
2019-01-18T05:36:10.878Z,5.6
2019-01-18T05:37:13.129Z,5.9
2019-01-18T05:38:14.585Z,6
2019-01-18T05:39:16.029Z,5.8
2019-01-18T05:40:17.467Z,6
2019-01-18T05:41:18.923Z,6.1
2019-01-18T05:42:20.413Z,6.1
2019-01-18T05:43:24.345Z,6.1
2019-01-18T05:44:25.777Z,6.1
2019-01-18T05:45:27.245Z,5.9
2019-01-18T05:46:29.114Z,6.7
2019-01-18T05:47:33.448Z,7.3
2019-01-18T05:48:34.917Z,8.1
2019-01-18T05:49:36.457Z,8.9
2019-01-18T05:50:37.901Z,9.7
2019-01-18T05:51:39.441Z,10.3
2019-01-18T05:52:41.346Z,10.5
2019-01-18T05:53:42.842Z,10.8
2019-01-18T05:54:44.472Z,11.1
2019-01-18T05:55:46.127Z,11.5
2019-01-18T05:56:47.664Z,11.6
2019-01-18T05:57:49.308Z,11.9
2019-01-18T05:58:50.850Z,12.2
2019-01-18T05:59:52.397Z,12.4
2019-01-18T06:00:55.244Z,12.6
2019-01-18T06:01:57.218Z,12.7
2019-01-18T06:02:58.877Z,13
2019-01-18T06:04:00.528Z,13.5
2019-01-18T06:05:02.159Z,13.4
2019-01-18T06:06:03.815Z,13.3
2019-01-18T06:07:05.447Z,13.3
2019-01-18T06:08:07.096Z,13.2
2019-01-18T06:09:08.616Z,13.3
2019-01-18T06:10:10.389Z,13.4
2019-01-18T06:11:12.297Z,13.6
2019-01-18T06:12:14.130Z,14
2019-01-18T06:13:20.132Z,14.6
2019-01-18T06:14:21.965Z,14.9
2019-01-18T06:15:23.527Z,14.9
2019-01-18T06:16:25.166Z,14.9
2019-01-18T06:17:26.815Z,14.9
2019-01-18T06:18:28.382Z,14.9
2019-01-18T06:19:29.906Z,14.8
2019-01-18T06:20:31.456Z,14.9
2019-01-18T06:21:32.986Z,14.8
2019-01-18T06:22:34.629Z,14.8
2019-01-18T06:23:36.212Z,15
2019-01-18T06:24:37.718Z,14.9
2019-01-18T06:25:39.273Z,14.6
2019-01-18T06:26:41.012Z,14.5
2019-01-18T06:27:42.566Z,14.8
2019-01-18T06:28:44.134Z,15
2019-01-18T06:29:45.633Z,15.3
2019-01-18T06:30:47.276Z,15.4
2019-01-18T06:31:50.131Z,15.4
2019-01-18T06:32:51.712Z,15.4
2019-01-18T06:33:53.819Z,15.4
2019-01-18T06:34:55.330Z,15.7
2019-01-18T06:35:59.508Z,16
2019-01-18T06:37:03.494Z,16.2
2019-01-18T06:38:07.313Z,16.2
2019-01-18T06:39:09.106Z,16.4
2019-01-18T06:40:10.604Z,16.7
2019-01-18T06:41:12.598Z,16.6
2019-01-18T06:42:14.082Z,16.5
2019-01-18T06:43:15.830Z,16.3
2019-01-18T06:44:17.370Z,16
2019-01-18T06:45:19.118Z,16.5
2019-01-18T06:46:20.658Z,16.7
2019-01-18T06:47:22.516Z,16.6
2019-01-18T06:48:26.114Z,16.5
2019-01-18T06:49:27.660Z,16.8
2019-01-18T06:50:29.201Z,16.8
2019-01-18T06:51:30.826Z,16.9
2019-01-18T06:52:32.329Z,17.1
2019-01-18T06:53:33.805Z,17.3
2019-01-18T06:54:35.355Z,17.1
2019-01-18T06:55:36.904Z,17.1
2019-01-18T06:56:38.447Z,17
2019-01-18T06:57:42.851Z,16.9
2019-01-18T06:58:44.505Z,17.2
2019-01-18T06:59:46.300Z,17.1
2019-01-18T07:00:47.796Z,17.2
2019-01-18T07:01:49.422Z,17.2
2019-01-18T07:02:51.081Z,17.4
2019-01-18T07:03:52.724Z,17.5
2019-01-18T07:04:54.427Z,17.5
2019-01-18T07:05:55.878Z,17.5
2019-01-18T07:06:57.457Z,17.7
2019-01-18T07:07:59.458Z,17.7
2019-01-18T07:09:03.380Z,17.4
2019-01-18T07:10:05.048Z,17.5
2019-01-18T07:11:06.997Z,17.4
2019-01-18T07:12:08.541Z,17.3
2019-01-18T07:13:10.109Z,17.2
2019-01-18T07:14:11.631Z,17.1
2019-01-18T07:15:13.489Z,17
2019-01-18T07:16:15.117Z,17
2019-01-18T07:17:16.687Z,17
2019-01-18T07:18:18.215Z,16.9
2019-01-18T07:19:19.863Z,16.8
2019-01-18T07:20:21.500Z,16.6
2019-01-18T07:21:23.156Z,16.4
2019-01-18T07:22:24.683Z,16.3
2019-01-18T07:23:26.139Z,16.2
2019-01-18T07:24:27.665Z,16.2
2019-01-18T07:25:29.426Z,16.1
2019-01-18T07:26:30.957Z,16
2019-01-18T07:27:33.268Z,16
2019-01-18T07:28:34.761Z,15.9
2019-01-18T07:29:37.125Z,15.9
2019-01-18T07:30:41.513Z,15.9
2019-01-18T07:31:44.275Z,16
2019-01-18T07:32:45.761Z,15.9
2019-01-18T07:33:49.726Z,16.1
2019-01-18T07:34:52.113Z,16.2
2019-01-18T07:35:53.605Z,16.4
2019-01-18T07:36:55.059Z,16.5
2019-01-18T07:37:56.543Z,16.4
2019-01-18T07:39:00.518Z,16.3
2019-01-18T07:40:02.092Z,16.2
2019-01-18T07:41:03.590Z,16.1
2019-01-18T07:42:05.249Z,16.1
2019-01-18T07:43:07.725Z,16.1
2019-01-18T07:44:09.207Z,16.1
2019-01-18T07:45:10.721Z,16.1
2019-01-18T07:46:12.307Z,16
2019-01-18T07:47:14.841Z,16.1
2019-01-18T07:48:16.305Z,16.1
2019-01-18T07:49:17.803Z,16.1
2019-01-18T07:50:20.468Z,16
2019-01-18T07:51:22.331Z,15.9
2019-01-18T07:52:26.417Z,16
2019-01-18T07:53:27.893Z,16
2019-01-18T07:54:29.502Z,15.9
2019-01-18T07:55:31.049Z,15.9
2019-01-18T07:56:32.544Z,15.8
2019-01-18T07:57:34.863Z,15.8
2019-01-18T07:58:41.849Z,15.9
2019-01-18T07:59:43.689Z,16
2019-01-18T08:00:45.275Z,16
2019-01-18T08:01:46.827Z,16
2019-01-18T08:02:48.413Z,16
2019-01-18T08:04:04.388Z,16.1
2019-01-18T08:05:11.069Z,16
2019-01-18T08:06:14.376Z,16
2019-01-18T08:07:15.884Z,16
2019-01-18T08:08:18.642Z,15.9
2019-01-18T08:09:20.121Z,15.9
2019-01-18T08:10:23.876Z,15.9
2019-01-18T08:11:25.979Z,16
2019-01-18T08:12:27.510Z,16
2019-01-18T08:13:29.025Z,15.9
2019-01-18T08:14:30.568Z,16
2019-01-18T08:15:32.002Z,16
2019-01-18T08:16:34.477Z,15.9
2019-01-18T08:17:38.562Z,15.9
2019-01-18T08:18:40.124Z,16
2019-01-18T08:19:41.753Z,16
2019-01-18T08:20:43.289Z,16
2019-01-18T08:21:47.483Z,15.9
2019-01-18T08:22:49.050Z,15.9
2019-01-18T08:23:56.767Z,15.9
2019-01-18T08:24:58.289Z,15.9
2019-01-18T08:25:59.761Z,15.9
2019-01-18T08:27:01.270Z,15.9
2019-01-18T08:28:04.103Z,16
2019-01-18T08:29:05.574Z,15.9
2019-01-18T08:30:07.221Z,15.9
2019-01-18T08:31:08.783Z,15.9
2019-01-18T08:32:10.260Z,16.2
2019-01-18T08:33:13.286Z,16.5
2019-01-18T08:34:14.820Z,16.6
2019-01-18T08:35:16.368Z,16.8
2019-01-18T08:36:19.893Z,16.8
2019-01-18T08:37:21.368Z,16.8
2019-01-18T08:38:25.434Z,16.9
2019-01-18T08:39:26.940Z,17
2019-01-18T08:40:28.426Z,17
2019-01-18T08:41:29.928Z,17.1
2019-01-18T08:42:33.210Z,17.2
2019-01-18T08:43:38.124Z,17.3
2019-01-18T08:44:43.881Z,17.4
2019-01-18T08:45:45.418Z,17.5
2019-01-18T08:46:46.952Z,17.6
2019-01-18T08:47:49.658Z,17.6
2019-01-18T08:48:51.480Z,17.6
2019-01-18T08:49:53.113Z,17.8
2019-01-18T08:50:55.582Z,17.6
2019-01-18T08:51:57.230Z,17.6
2019-01-18T08:52:58.869Z,17.7
2019-01-18T08:54:00.534Z,17.8
2019-01-18T08:55:02.083Z,17.6
2019-01-18T08:56:03.605Z,17.6
2019-01-18T08:57:05.245Z,17.6
2019-01-18T08:58:06.796Z,17.6
2019-01-18T08:59:08.638Z,17.6
2019-01-18T09:00:12.449Z,17.6
2019-01-18T09:01:13.905Z,17.6
2019-01-18T09:02:15.774Z,17.7
2019-01-18T09:03:17.288Z,17.7
2019-01-18T09:04:19.164Z,17.6
2019-01-18T09:05:21.908Z,17.6
2019-01-18T09:06:23.382Z,17.6
2019-01-18T09:07:24.978Z,17.6
2019-01-18T09:08:28.706Z,17.5
2019-01-18T09:09:30.268Z,17.5
2019-01-18T09:10:31.757Z,17.7
2019-01-18T09:11:33.236Z,17.7
2019-01-18T09:12:34.848Z,17.6
2019-01-18T09:13:38.278Z,17.5
2019-01-18T09:14:40.164Z,17.5
2019-01-18T09:15:41.730Z,17.4
2019-01-18T09:16:43.273Z,17.4
2019-01-18T09:17:48.476Z,17.3
2019-01-18T09:18:52.454Z,17.2
2019-01-18T09:19:54.018Z,17.2
2019-01-18T09:20:55.524Z,17.2
2019-01-18T09:21:59.354Z,17.2
2019-01-18T09:23:00.882Z,17.2
2019-01-18T09:24:08.213Z,17.3
2019-01-18T09:25:09.693Z,17.3
2019-01-18T09:26:11.243Z,17.3
2019-01-18T09:27:12.823Z,17.4
2019-01-18T09:28:18.126Z,17.4
2019-01-18T09:29:19.605Z,17.5
2019-01-18T09:30:21.145Z,17.7
2019-01-18T09:31:23.710Z,17.7
2019-01-18T09:32:25.453Z,17.8
2019-01-18T09:33:26.900Z,17.8
2019-01-18T09:34:28.405Z,17.8
2019-01-18T09:35:32.178Z,17.7
2019-01-18T09:36:33.832Z,17.7
2019-01-18T09:37:35.422Z,17.7
2019-01-18T09:38:40.488Z,17.6
2019-01-18T09:39:41.960Z,17.6
2019-01-18T09:40:48.653Z,17.6
2019-01-18T09:41:50.138Z,17.6
2019-01-18T09:42:51.597Z,17.5
2019-01-18T09:43:53.142Z,17.5
2019-01-18T09:44:56.083Z,17.5
2019-01-18T09:45:57.661Z,17.5
2019-01-18T09:46:59.200Z,17.4
2019-01-18T09:48:00.955Z,17.6
2019-01-18T09:49:06.200Z,17.6
2019-01-18T09:50:07.676Z,17.5
2019-01-18T09:51:09.203Z,17.5
2019-01-18T09:52:10.757Z,17.5
2019-01-18T09:53:12.291Z,17.5
2019-01-18T09:54:13.772Z,17.6
2019-01-18T09:55:15.263Z,17.5
2019-01-18T09:56:16.813Z,17.5
2019-01-18T09:57:18.447Z,17.5
2019-01-18T09:58:22.145Z,17.5
2019-01-18T09:59:23.689Z,17.5
2019-01-18T10:00:25.468Z,17.6
2019-01-18T10:01:29.700Z,17.6
2019-01-18T10:02:33.298Z,17.5
2019-01-18T10:03:34.983Z,17.5
2019-01-18T10:04:37.495Z,17.6
2019-01-18T10:05:38.941Z,17.6
2019-01-18T10:06:41.468Z,17.6
2019-01-18T10:07:45.643Z,17.6
2019-01-18T10:08:47.111Z,17.7
2019-01-18T10:09:48.593Z,17.6
2019-01-18T10:10:50.064Z,17.8
2019-01-18T10:11:51.809Z,17.8
2019-01-18T10:12:56.310Z,17.7
2019-01-18T10:13:57.809Z,17.7
2019-01-18T10:15:03.264Z,17.7
2019-01-18T10:16:04.785Z,17.8
2019-01-18T10:17:06.423Z,17.7
2019-01-18T10:18:07.929Z,17.7
2019-01-18T10:19:10.363Z,17.7
2019-01-18T10:20:11.816Z,17.7
2019-01-18T10:21:13.386Z,17.7
2019-01-18T10:22:15.027Z,17.7
2019-01-18T10:23:16.575Z,17.7
2019-01-18T10:24:18.057Z,17.6
2019-01-18T10:25:19.565Z,17.7
2019-01-18T10:26:21.213Z,17.7
2019-01-18T10:27:23.917Z,17.7
2019-01-18T10:28:25.468Z,17.7
2019-01-18T10:29:28.190Z,17.7
2019-01-18T10:30:29.790Z,17.8
2019-01-18T10:31:31.481Z,17.7
2019-01-18T10:32:32.989Z,17.7
2019-01-18T10:33:34.790Z,17.7
2019-01-18T10:34:36.409Z,17.7
2019-01-18T10:35:40.320Z,17.7
2019-01-18T10:36:46.415Z,17.8
2019-01-18T10:37:50.363Z,17.8
2019-01-18T10:38:59.279Z,17.8
2019-01-18T10:40:02.255Z,17.8
2019-01-18T10:41:04.948Z,17.9
2019-01-18T10:42:09.313Z,17.9
2019-01-18T10:43:11.899Z,17.9
2019-01-18T10:44:13.430Z,17.9
2019-01-18T10:45:14.860Z,17.9
2019-01-18T10:46:26.827Z,18
2019-01-18T10:47:28.325Z,17.9
2019-01-18T10:48:35.285Z,17.9
2019-01-18T10:49:39.232Z,17.8
2019-01-18T10:50:40.730Z,17.9
2019-01-18T10:51:43.403Z,18
2019-01-18T10:52:47.288Z,18
2019-01-18T10:53:48.920Z,18.1
2019-01-18T10:54:51.902Z,18
2019-01-18T10:55:53.346Z,18
2019-01-18T10:56:54.838Z,18
2019-01-18T10:57:56.289Z,18
2019-01-18T10:58:57.885Z,18
2019-01-18T11:00:07.402Z,17.9
2019-01-18T11:01:08.889Z,17.9
2019-01-18T11:02:11.357Z,17.8
2019-01-18T11:03:13.174Z,17.9
2019-01-18T11:04:15.956Z,17.9
2019-01-18T11:05:17.464Z,17.9
2019-01-18T11:06:21.627Z,17.9
2019-01-18T11:07:23.210Z,17.9
2019-01-18T11:08:24.860Z,17.9
2019-01-18T11:09:26.738Z,17.8
2019-01-18T11:10:28.402Z,17.8
2019-01-18T11:11:32.305Z,17.8
2019-01-18T11:12:33.756Z,17.8
2019-01-18T11:13:35.419Z,17.8
2019-01-18T11:14:37.198Z,17.8
2019-01-18T11:15:38.730Z,17.8
2019-01-18T11:16:42.308Z,17.8
2019-01-18T11:17:43.821Z,17.8
2019-01-18T11:18:46.286Z,17.8
2019-01-18T11:19:50.377Z,17.8
2019-01-18T11:20:54.524Z,17.8
2019-01-18T11:21:56.009Z,17.8
2019-01-18T11:22:58.722Z,17.8
2019-01-18T11:24:01.013Z,17.8
2019-01-18T11:25:02.737Z,17.7
2019-01-18T11:26:04.318Z,17.7
2019-01-18T11:27:06.145Z,17.7
2019-01-18T11:28:09.039Z,17.7
2019-01-18T11:29:11.706Z,17.8
2019-01-18T11:30:20.970Z,17.8
2019-01-18T11:31:23.433Z,17.9
2019-01-18T11:32:25.234Z,17.8
2019-01-18T11:33:27.086Z,17.8
2019-01-18T11:34:29.636Z,17.8
2019-01-18T11:35:31.296Z,17.9
2019-01-18T11:36:33.038Z,17.9
2019-01-18T11:37:34.492Z,17.8
2019-01-18T11:38:35.997Z,17.9
2019-01-18T11:39:37.453Z,17.9
2019-01-18T11:40:41.274Z,17.9
2019-01-18T11:41:46.350Z,17.9
2019-01-18T11:42:47.804Z,17.9
2019-01-18T11:43:49.298Z,17.9
2019-01-18T11:44:50.769Z,18
2019-01-18T11:45:52.344Z,18
2019-01-18T11:46:53.793Z,18
2019-01-18T11:47:55.234Z,18
2019-01-18T11:48:56.754Z,18.1
2019-01-18T11:50:02.323Z,18.2
2019-01-18T11:51:04.356Z,18.1
2019-01-18T11:52:05.907Z,18.1
2019-01-18T11:53:07.446Z,18.1
2019-01-18T11:54:11.344Z,18.1
2019-01-18T11:55:13.214Z,18.1
2019-01-18T11:56:14.792Z,18.2
2019-01-18T11:57:16.533Z,18.1
2019-01-18T11:58:18.007Z,18.2
2019-01-18T11:59:19.486Z,18.2
2019-01-18T12:00:21.027Z,18.2
2019-01-18T12:01:23.585Z,18.2
2019-01-18T12:02:26.662Z,18.2
2019-01-18T12:03:28.590Z,18.1
2019-01-18T12:04:30.067Z,18.2
2019-01-18T12:05:31.704Z,18.2
2019-01-18T12:06:33.200Z,18.2
2019-01-18T12:07:36.681Z,18.2
2019-01-18T12:08:41.780Z,18.2
2019-01-18T12:09:43.582Z,18.2
2019-01-18T12:10:47.428Z,18.1
2019-01-18T12:11:49.205Z,18.2
2019-01-18T12:12:50.708Z,18.3
2019-01-18T12:13:52.444Z,18.3
2019-01-18T12:14:54.332Z,18.3
2019-01-18T12:15:55.805Z,18.4
2019-01-18T12:16:58.329Z,18.3
2019-01-18T12:17:59.820Z,18.3
2019-01-18T12:19:01.345Z,18.3
2019-01-18T12:20:02.830Z,18.3
2019-01-18T12:21:04.342Z,18.3
2019-01-18T12:22:05.864Z,18.3
2019-01-18T12:23:07.317Z,18.3
2019-01-18T12:24:08.804Z,18.3
2019-01-18T12:25:12.665Z,18.3
2019-01-18T12:26:16.417Z,18.2
2019-01-18T12:27:21.272Z,18.3
2019-01-18T12:28:22.764Z,18.3
2019-01-18T12:29:24.241Z,18.3
2019-01-18T12:30:26.035Z,18.3
2019-01-18T12:31:28.511Z,18.3
2019-01-18T12:32:30.300Z,18.3
2019-01-18T12:33:32.270Z,18.3
2019-01-18T12:34:33.729Z,18.3
2019-01-18T12:35:35.278Z,18.3
2019-01-18T12:36:39.439Z,18.3
2019-01-18T12:37:43.274Z,18.3
2019-01-18T12:38:44.821Z,18.3
2019-01-18T12:39:47.298Z,18.3
2019-01-18T12:40:51.430Z,18.3
2019-01-18T12:41:53.211Z,18.2
2019-01-18T12:42:54.840Z,18.3
2019-01-18T12:43:59.019Z,18.2
2019-01-18T12:45:01.186Z,18.2
2019-01-18T12:46:05.447Z,18.3
2019-01-18T12:47:06.943Z,18.3
2019-01-18T12:48:08.538Z,18.3
2019-01-18T12:49:10.192Z,18.3
2019-01-18T12:50:11.649Z,18.4
2019-01-18T12:51:13.473Z,18.3
2019-01-18T12:52:15.119Z,18.3
2019-01-18T12:53:16.661Z,18.2
2019-01-18T12:54:18.409Z,18.1
2019-01-18T12:55:20.365Z,18.2
2019-01-18T12:56:23.972Z,18.2
2019-01-18T12:57:26.267Z,18.1
2019-01-18T12:58:28.336Z,18.2
2019-01-18T12:59:29.771Z,18.2
2019-01-18T13:00:31.216Z,18.3
2019-01-18T13:01:32.845Z,18.2
2019-01-18T13:02:35.368Z,18.2
2019-01-18T13:03:37.040Z,18.2
2019-01-18T13:04:39.406Z,18.1
2019-01-18T13:05:40.882Z,18.1
2019-01-18T13:06:42.343Z,18.1
2019-01-18T13:07:43.803Z,18.2
2019-01-18T13:08:45.705Z,18.2
2019-01-18T13:09:47.177Z,18.2
2019-01-18T13:10:52.580Z,18.3
2019-01-18T13:11:54.271Z,18.2
2019-01-18T13:12:55.732Z,18.2
2019-01-18T13:13:57.265Z,18.1
2019-01-18T13:14:58.712Z,18.1
2019-01-18T13:16:00.222Z,18.1
2019-01-18T13:17:05.603Z,18.1
2019-01-18T13:18:07.263Z,18.1
2019-01-18T13:19:08.842Z,18.1
2019-01-18T13:20:10.377Z,18.2
2019-01-18T13:21:15.305Z,18.1
2019-01-18T13:22:16.766Z,18.2
2019-01-18T13:23:18.248Z,18.2
2019-01-18T13:24:19.989Z,18.2
2019-01-18T13:25:24.716Z,18.2
2019-01-18T13:26:27.324Z,18.1
2019-01-18T13:27:28.873Z,18
2019-01-18T13:28:30.840Z,18
2019-01-18T13:29:32.762Z,18.1
2019-01-18T13:30:34.307Z,18.2
2019-01-18T13:31:35.852Z,18.2
2019-01-18T13:32:41.636Z,18.2
2019-01-18T13:33:43.160Z,18.2
2019-01-18T13:34:45.919Z,18.2
2019-01-18T13:35:47.647Z,18.2
2019-01-18T13:36:49.091Z,18.1
2019-01-18T13:37:50.538Z,18.2
2019-01-18T13:38:52.035Z,18.1
2019-01-18T13:39:53.550Z,18.1
2019-01-18T13:40:55.275Z,18.1
2019-01-18T13:41:57.217Z,18.2
2019-01-18T13:42:58.805Z,18.2
2019-01-18T13:44:00.698Z,18.4
2019-01-18T13:45:02.368Z,19.3
2019-01-18T13:46:04.011Z,20.3
2019-01-18T13:47:07.956Z,21.1
2019-01-18T13:48:09.408Z,21.4
2019-01-18T13:49:10.884Z,20.4
2019-01-18T13:50:12.837Z,19.4
2019-01-18T13:51:14.478Z,18.8
2019-01-18T13:52:18.372Z,18.5
2019-01-18T13:53:20.383Z,18.5
2019-01-18T13:54:21.874Z,18.3
2019-01-18T13:55:24.546Z,18.2
2019-01-18T13:56:26.184Z,18.1
2019-01-18T13:57:29.229Z,18.2
2019-01-18T13:58:30.713Z,18.4
2019-01-18T13:59:32.239Z,18.7
2019-01-18T14:00:33.891Z,18.9
2019-01-18T14:01:37.887Z,19.2